首页
METAR-TAF:

METAR-TAF

机场 :

中標津機場

中標津, 日本

纬度: 43-34N, 经度: 144-58E, 海拔: 66米

当前天气观测

该预报发布于57分钟前的08:00 UTC
风速9节,风向
温度 -3°C
湿度 58%
气压 1009 hPa
能见度10公里或以上
少量云层高于1000英尺
散云层高于5000英尺
附近有阵雨,

METAR: RJCN 040800Z 35009KT 9999 VCSH FEW010 SCT050 M03/M10 Q1009

时间: 17:57 (08:57 UTC)


TAF: 丢失

超过4000个机场的气象观测和天气预报(METAR&TAF报告)。

可查询的气象台以黄色和红色小点在地图上表示。

将鼠标移到小点上方,可查看气象台名称。

然后点击查看天气观测和预报。

如需切换地图:点击带黑十字的绿色按钮放大地图;点击带横线的绿色按钮缩小地图;或者点击绿色箭头查看邻近地区的地图。


METAR-TAF: